sensor_id;sensor_type;location;lat;lon;timestamp;P1;durP1;ratioP1;P2;durP2;ratioP2
52542;SDS011;38449;52.696;6.186;2022-11-20T00:01:04;19.40;;;11.85;;
52542;SDS011;38449;52.696;6.186;2022-11-20T00:03:34;20.10;;;11.88;;
52542;SDS011;38449;52.696;6.186;2022-11-20T00:06:01;24.42;;;13.85;;
52542;SDS011;38449;52.696;6.186;2022-11-20T00:08:27;29.65;;;17.33;;
52542;SDS011;38449;52.696;6.186;2022-11-20T00:10:53;33.75;;;18.55;;
52542;SDS011;38449;52.696;6.186;2022-11-20T00:13:18;40.85;;;21.45;;
52542;SDS011;38449;52.696;6.186;2022-11-20T00:15:44;37.08;;;21.13;;
52542;SDS011;38449;52.696;6.186;2022-11-20T00:18:09;35.15;;;20.30;;
52542;SDS011;38449;52.696;6.186;2022-11-20T00:20:35;34.60;;;20.80;;
52542;SDS011;38449;52.696;6.186;2022-11-20T00:23:00;32.53;;;18.98;;
52542;SDS011;38449;52.696;6.186;2022-11-20T00:25:26;29.55;;;17.08;;
52542;SDS011;38449;52.696;6.186;2022-11-20T00:27:51;26.02;;;15.77;;
52542;SDS011;38449;52.696;6.186;2022-11-20T00:30:17;28.30;;;16.90;;
52542;SDS011;38449;52.696;6.186;2022-11-20T00:32:43;30.25;;;18.38;;
52542;SDS011;38449;52.696;6.186;2022-11-20T00:35:08;31.75;;;17.90;;
52542;SDS011;38449;52.696;6.186;2022-11-20T00:37:34;25.80;;;15.35;;
52542;SDS011;38449;52.696;6.186;2022-11-20T00:39:59;25.65;;;15.50;;
52542;SDS011;38449;52.696;6.186;2022-11-20T00:42:25;26.67;;;16.48;;
52542;SDS011;38449;52.696;6.186;2022-11-20T00:44:51;27.70;;;15.60;;
52542;SDS011;38449;52.696;6.186;2022-11-20T00:47:16;33.58;;;17.20;;
52542;SDS011;38449;52.696;6.186;2022-11-20T00:49:42;27.27;;;16.33;;
52542;SDS011;38449;52.696;6.186;2022-11-20T00:52:08;33.30;;;17.52;;
52542;SDS011;38449;52.696;6.186;2022-11-20T00:54:34;28.15;;;16.85;;
52542;SDS011;38449;52.696;6.186;2022-11-20T00:56:59;26.13;;;15.35;;
52542;SDS011;38449;52.696;6.186;2022-11-20T00:59:25;32.45;;;16.42;;
52542;SDS011;38449;52.696;6.186;2022-11-20T01:01:50;39.05;;;17.83;;
52542;SDS011;38449;52.696;6.186;2022-11-20T01:04:16;36.25;;;18.75;;
52542;SDS011;38449;52.696;6.186;2022-11-20T01:06:41;35.03;;;17.15;;
52542;SDS011;38449;52.696;6.186;2022-11-20T01:09:10;34.97;;;16.77;;
52542;SDS011;38449;52.696;6.186;2022-11-20T01:11:41;34.05;;;17.42;;
52542;SDS011;38449;52.696;6.186;2022-11-20T01:14:10;32.78;;;15.88;;
52542;SDS011;38449;52.696;6.186;2022-11-20T01:16:38;22.35;;;14.27;;
52542;SDS011;38449;52.696;6.186;2022-11-20T01:19:07;20.58;;;11.88;;
52542;SDS011;38449;52.696;6.186;2022-11-20T01:21:36;20.75;;;11.80;;
52542;SDS011;38449;52.696;6.186;2022-11-20T01:24:04;17.30;;;10.57;;
52542;SDS011;38449;52.696;6.186;2022-11-20T01:26:32;16.00;;;9.85;;
52542;SDS011;38449;52.696;6.186;2022-11-20T01:29:00;15.02;;;9.05;;
52542;SDS011;38449;52.696;6.186;2022-11-20T01:31:30;15.85;;;9.55;;
52542;SDS011;38449;52.696;6.186;2022-11-20T01:34:04;15.13;;;9.25;;
52542;SDS011;38449;52.696;6.186;2022-11-20T01:36:32;19.27;;;10.27;;
52542;SDS011;38449;52.696;6.186;2022-11-20T01:39:06;18.80;;;9.65;;
52542;SDS011;38449;52.696;6.186;2022-11-20T01:41:35;14.75;;;9.20;;
52542;SDS011;38449;52.696;6.186;2022-11-20T01:44:20;15.00;;;9.10;;
52542;SDS011;38449;52.696;6.186;2022-11-20T01:46:51;14.70;;;8.80;;
52542;SDS011;38449;52.696;6.186;2022-11-20T01:49:20;13.40;;;8.07;;
52542;SDS011;38449;52.696;6.186;2022-11-20T01:51:52;13.80;;;8.45;;
52542;SDS011;38449;52.696;6.186;2022-11-20T01:54:26;16.60;;;8.82;;
52542;SDS011;38449;52.696;6.186;2022-11-20T01:56:57;16.42;;;9.43;;
52542;SDS011;38449;52.696;6.186;2022-11-20T01:59:25;14.82;;;8.35;;
52542;SDS011;38449;52.696;6.186;2022-11-20T02:01:52;15.23;;;8.95;;
52542;SDS011;38449;52.696;6.186;2022-11-20T02:04:19;14.18;;;8.10;;
52542;SDS011;38449;52.696;6.186;2022-11-20T02:06:50;16.48;;;8.80;;
52542;SDS011;38449;52.696;6.186;2022-11-20T02:09:22;16.00;;;9.18;;
52542;SDS011;38449;52.696;6.186;2022-11-20T02:11:48;16.90;;;8.90;;
52542;SDS011;38449;52.696;6.186;2022-11-20T02:14:14;16.30;;;8.75;;
52542;SDS011;38449;52.696;6.186;2022-11-20T02:16:40;14.75;;;9.20;;
52542;SDS011;38449;52.696;6.186;2022-11-20T02:19:24;14.80;;;8.95;;
52542;SDS011;38449;52.696;6.186;2022-11-20T02:21:56;15.10;;;8.82;;
52542;SDS011;38449;52.696;6.186;2022-11-20T02:25:04;16.38;;;8.80;;
52542;SDS011;38449;52.696;6.186;2022-11-20T02:27:31;18.52;;;9.82;;
52542;SDS011;38449;52.696;6.186;2022-11-20T02:29:59;17.52;;;9.98;;
52542;SDS011;38449;52.696;6.186;2022-11-20T02:32:31;16.98;;;9.43;;
52542;SDS011;38449;52.696;6.186;2022-11-20T02:35:05;17.75;;;9.80;;
52542;SDS011;38449;52.696;6.186;2022-11-20T02:37:54;16.58;;;9.35;;
52542;SDS011;38449;52.696;6.186;2022-11-20T02:40:22;17.63;;;9.50;;
52542;SDS011;38449;52.696;6.186;2022-11-20T02:42:51;16.23;;;9.50;;
52542;SDS011;38449;52.696;6.186;2022-11-20T02:45:17;16.90;;;9.10;;
52542;SDS011;38449;52.696;6.186;2022-11-20T02:47:43;17.38;;;9.95;;
52542;SDS011;38449;52.696;6.186;2022-11-20T02:50:08;17.92;;;10.65;;
52542;SDS011;38449;52.696;6.186;2022-11-20T02:52:34;15.55;;;10.25;;
52542;SDS011;38449;52.696;6.186;2022-11-20T02:55:00;20.95;;;11.13;;
52542;SDS011;38449;52.696;6.186;2022-11-20T02:57:25;18.33;;;9.95;;
52542;SDS011;38449;52.696;6.186;2022-11-20T02:59:51;17.60;;;10.20;;
52542;SDS011;38449;52.696;6.186;2022-11-20T03:02:17;17.20;;;10.00;;
52542;SDS011;38449;52.696;6.186;2022-11-20T03:04:42;16.88;;;9.57;;
52542;SDS011;38449;52.696;6.186;2022-11-20T03:07:08;18.20;;;9.60;;
52542;SDS011;38449;52.696;6.186;2022-11-20T03:09:34;15.00;;;9.23;;
52542;SDS011;38449;52.696;6.186;2022-11-20T03:12:00;17.40;;;9.88;;
52542;SDS011;38449;52.696;6.186;2022-11-20T03:14:26;16.17;;;10.13;;
52542;SDS011;38449;52.696;6.186;2022-11-20T03:16:51;18.83;;;11.10;;
52542;SDS011;38449;52.696;6.186;2022-11-20T03:19:17;23.17;;;11.77;;
52542;SDS011;38449;52.696;6.186;2022-11-20T03:21:43;20.13;;;11.95;;
52542;SDS011;38449;52.696;6.186;2022-11-20T03:24:08;20.55;;;11.55;;
52542;SDS011;38449;52.696;6.186;2022-11-20T03:26:34;21.90;;;12.30;;
52542;SDS011;38449;52.696;6.186;2022-11-20T03:29:00;21.50;;;11.45;;
52542;SDS011;38449;52.696;6.186;2022-11-20T03:31:28;18.38;;;10.48;;
52542;SDS011;38449;52.696;6.186;2022-11-20T03:33:56;19.23;;;9.70;;
52542;SDS011;38449;52.696;6.186;2022-11-20T03:36:22;21.90;;;10.95;;
52542;SDS011;38449;52.696;6.186;2022-11-20T03:38:49;18.92;;;10.50;;
52542;SDS011;38449;52.696;6.186;2022-11-20T03:41:17;18.50;;;9.48;;
52542;SDS011;38449;52.696;6.186;2022-11-20T03:43:54;17.60;;;9.35;;
52542;SDS011;38449;52.696;6.186;2022-11-20T03:46:22;17.15;;;9.25;;
52542;SDS011;38449;52.696;6.186;2022-11-20T03:48:48;19.10;;;10.25;;
52542;SDS011;38449;52.696;6.186;2022-11-20T03:51:15;16.85;;;9.10;;
52542;SDS011;38449;52.696;6.186;2022-11-20T03:53:45;16.10;;;9.13;;
52542;SDS011;38449;52.696;6.186;2022-11-20T03:56:13;19.27;;;10.45;;
52542;SDS011;38449;52.696;6.186;2022-11-20T03:58:40;17.60;;;10.02;;
52542;SDS011;38449;52.696;6.186;2022-11-20T04:01:11;16.85;;;9.05;;
52542;SDS011;38449;52.696;6.186;2022-11-20T04:03:38;15.07;;;8.80;;
52542;SDS011;38449;52.696;6.186;2022-11-20T04:08:31;16.00;;;9.40;;
52542;SDS011;38449;52.696;6.186;2022-11-20T04:11:07;18.63;;;9.45;;
52542;SDS011;38449;52.696;6.186;2022-11-20T04:13:54;16.30;;;9.07;;
52542;SDS011;38449;52.696;6.186;2022-11-20T04:16:24;15.60;;;9.27;;
52542;SDS011;38449;52.696;6.186;2022-11-20T04:18:52;17.23;;;9.40;;
52542;SDS011;38449;52.696;6.186;2022-11-20T04:21:21;16.10;;;8.80;;
52542;SDS011;38449;52.696;6.186;2022-11-20T04:23:47;18.30;;;10.40;;
52542;SDS011;38449;52.696;6.186;2022-11-20T04:26:14;17.17;;;9.82;;
52542;SDS011;38449;52.696;6.186;2022-11-20T04:28:40;17.00;;;9.82;;
52542;SDS011;38449;52.696;6.186;2022-11-20T04:31:09;18.65;;;9.82;;
52542;SDS011;38449;52.696;6.186;2022-11-20T04:33:37;17.23;;;9.73;;
52542;SDS011;38449;52.696;6.186;2022-11-20T04:36:07;19.33;;;9.88;;
52542;SDS011;38449;52.696;6.186;2022-11-20T04:38:37;15.07;;;9.27;;
52542;SDS011;38449;52.696;6.186;2022-11-20T04:41:03;15.90;;;8.93;;
52542;SDS011;38449;52.696;6.186;2022-11-20T04:43:32;15.13;;;8.57;;
52542;SDS011;38449;52.696;6.186;2022-11-20T04:45:58;16.90;;;8.80;;
52542;SDS011;38449;52.696;6.186;2022-11-20T04:48:25;17.75;;;9.15;;
52542;SDS011;38449;52.696;6.186;2022-11-20T04:50:52;16.17;;;8.52;;
52542;SDS011;38449;52.696;6.186;2022-11-20T04:53:18;14.48;;;8.95;;
52542;SDS011;38449;52.696;6.186;2022-11-20T04:55:44;16.98;;;10.00;;
52542;SDS011;38449;52.696;6.186;2022-11-20T04:58:10;14.85;;;8.43;;
52542;SDS011;38449;52.696;6.186;2022-11-20T05:00:36;14.32;;;8.32;;
52542;SDS011;38449;52.696;6.186;2022-11-20T05:03:01;17.38;;;8.80;;
52542;SDS011;38449;52.696;6.186;2022-11-20T05:05:27;16.15;;;9.70;;
52542;SDS011;38449;52.696;6.186;2022-11-20T05:07:53;16.75;;;10.23;;
52542;SDS011;38449;52.696;6.186;2022-11-20T05:10:20;18.02;;;9.68;;
52542;SDS011;38449;52.696;6.186;2022-11-20T05:12:46;18.58;;;9.73;;
52542;SDS011;38449;52.696;6.186;2022-11-20T05:15:11;16.85;;;9.77;;
52542;SDS011;38449;52.696;6.186;2022-11-20T05:17:37;18.92;;;9.48;;
52542;SDS011;38449;52.696;6.186;2022-11-20T05:20:02;19.30;;;10.32;;
52542;SDS011;38449;52.696;6.186;2022-11-20T05:22:28;16.67;;;9.63;;
52542;SDS011;38449;52.696;6.186;2022-11-20T05:24:54;17.35;;;9.95;;
52542;SDS011;38449;52.696;6.186;2022-11-20T05:27:19;16.30;;;9.30;;
52542;SDS011;38449;52.696;6.186;2022-11-20T05:29:45;14.73;;;8.90;;
52542;SDS011;38449;52.696;6.186;2022-11-20T05:32:11;17.13;;;9.20;;
52542;SDS011;38449;52.696;6.186;2022-11-20T05:34:36;16.02;;;9.98;;
52542;SDS011;38449;52.696;6.186;2022-11-20T05:37:02;19.98;;;9.82;;
52542;SDS011;38449;52.696;6.186;2022-11-20T05:39:28;20.15;;;10.30;;
52542;SDS011;38449;52.696;6.186;2022-11-20T05:41:53;23.33;;;11.98;;
52542;SDS011;38449;52.696;6.186;2022-11-20T05:44:38;22.30;;;12.70;;
52542;SDS011;38449;52.696;6.186;2022-11-20T05:47:04;18.90;;;10.95;;
52542;SDS011;38449;52.696;6.186;2022-11-20T05:49:30;16.08;;;9.70;;
52542;SDS011;38449;52.696;6.186;2022-11-20T05:51:56;18.17;;;10.32;;
52542;SDS011;38449;52.696;6.186;2022-11-20T05:54:23;16.52;;;10.52;;
52542;SDS011;38449;52.696;6.186;2022-11-20T05:56:48;17.75;;;9.90;;
52542;SDS011;38449;52.696;6.186;2022-11-20T05:59:14;15.30;;;9.35;;
52542;SDS011;38449;52.696;6.186;2022-11-20T06:01:40;16.60;;;9.40;;
52542;SDS011;38449;52.696;6.186;2022-11-20T06:04:05;17.90;;;9.85;;
52542;SDS011;38449;52.696;6.186;2022-11-20T06:06:31;16.38;;;9.23;;
52542;SDS011;38449;52.696;6.186;2022-11-20T06:08:57;17.45;;;9.00;;
52542;SDS011;38449;52.696;6.186;2022-11-20T06:11:24;17.95;;;9.48;;
52542;SDS011;38449;52.696;6.186;2022-11-20T06:13:49;18.73;;;10.38;;
52542;SDS011;38449;52.696;6.186;2022-11-20T06:16:17;16.52;;;9.98;;
52542;SDS011;38449;52.696;6.186;2022-11-20T06:18:44;17.35;;;9.80;;
52542;SDS011;38449;52.696;6.186;2022-11-20T06:21:11;18.55;;;9.65;;
52542;SDS011;38449;52.696;6.186;2022-11-20T06:23:38;16.85;;;9.63;;
52542;SDS011;38449;52.696;6.186;2022-11-20T06:26:06;18.65;;;10.25;;
52542;SDS011;38449;52.696;6.186;2022-11-20T06:28:33;19.15;;;10.02;;
52542;SDS011;38449;52.696;6.186;2022-11-20T06:31:00;16.83;;;10.07;;
52542;SDS011;38449;52.696;6.186;2022-11-20T06:33:26;19.08;;;9.68;;
52542;SDS011;38449;52.696;6.186;2022-11-20T06:35:52;19.55;;;10.50;;
52542;SDS011;38449;52.696;6.186;2022-11-20T06:38:20;20.20;;;10.55;;
52542;SDS011;38449;52.696;6.186;2022-11-20T06:40:46;16.95;;;10.93;;
52542;SDS011;38449;52.696;6.186;2022-11-20T06:43:12;18.90;;;10.95;;
52542;SDS011;38449;52.696;6.186;2022-11-20T06:45:37;20.98;;;11.85;;
52542;SDS011;38449;52.696;6.186;2022-11-20T06:48:03;20.38;;;11.15;;
52542;SDS011;38449;52.696;6.186;2022-11-20T06:50:29;20.48;;;11.27;;
52542;SDS011;38449;52.696;6.186;2022-11-20T06:52:54;21.08;;;10.82;;
52542;SDS011;38449;52.696;6.186;2022-11-20T06:55:20;21.15;;;10.95;;
52542;SDS011;38449;52.696;6.186;2022-11-20T06:57:46;19.90;;;11.35;;
52542;SDS011;38449;52.696;6.186;2022-11-20T07:00:12;20.95;;;11.63;;
52542;SDS011;38449;52.696;6.186;2022-11-20T07:02:38;19.33;;;10.90;;
52542;SDS011;38449;52.696;6.186;2022-11-20T07:05:04;19.42;;;11.63;;
52542;SDS011;38449;52.696;6.186;2022-11-20T07:07:29;19.50;;;10.75;;
52542;SDS011;38449;52.696;6.186;2022-11-20T07:09:55;18.52;;;10.60;;
52542;SDS011;38449;52.696;6.186;2022-11-20T07:12:20;19.13;;;11.02;;
52542;SDS011;38449;52.696;6.186;2022-11-20T07:14:46;23.67;;;11.55;;
52542;SDS011;38449;52.696;6.186;2022-11-20T07:17:12;20.23;;;11.18;;
52542;SDS011;38449;52.696;6.186;2022-11-20T07:19:39;20.48;;;11.82;;
52542;SDS011;38449;52.696;6.186;2022-11-20T07:22:04;16.67;;;10.40;;
52542;SDS011;38449;52.696;6.186;2022-11-20T07:24:30;19.40;;;10.30;;
52542;SDS011;38449;52.696;6.186;2022-11-20T07:26:55;20.33;;;11.50;;
52542;SDS011;38449;52.696;6.186;2022-11-20T07:29:21;19.23;;;10.65;;
52542;SDS011;38449;52.696;6.186;2022-11-20T07:31:46;18.98;;;10.82;;
52542;SDS011;38449;52.696;6.186;2022-11-20T07:34:12;18.40;;;10.25;;
52542;SDS011;38449;52.696;6.186;2022-11-20T07:36:38;18.40;;;10.15;;
52542;SDS011;38449;52.696;6.186;2022-11-20T07:39:04;19.52;;;10.48;;
52542;SDS011;38449;52.696;6.186;2022-11-20T07:41:30;18.80;;;11.25;;
52542;SDS011;38449;52.696;6.186;2022-11-20T07:43:56;18.92;;;10.75;;
52542;SDS011;38449;52.696;6.186;2022-11-20T07:46:21;19.60;;;10.88;;
52542;SDS011;38449;52.696;6.186;2022-11-20T07:48:47;19.15;;;10.93;;
52542;SDS011;38449;52.696;6.186;2022-11-20T07:51:13;18.77;;;11.18;;
52542;SDS011;38449;52.696;6.186;2022-11-20T07:53:38;19.38;;;11.40;;
52542;SDS011;38449;52.696;6.186;2022-11-20T07:56:04;19.48;;;10.90;;
52542;SDS011;38449;52.696;6.186;2022-11-20T07:58:30;19.17;;;10.98;;
52542;SDS011;38449;52.696;6.186;2022-11-20T08:00:58;17.88;;;11.23;;
52542;SDS011;38449;52.696;6.186;2022-11-20T08:03:30;22.00;;;10.88;;
52542;SDS011;38449;52.696;6.186;2022-11-20T08:05:58;19.00;;;10.95;;
52542;SDS011;38449;52.696;6.186;2022-11-20T08:08:25;19.75;;;11.45;;
52542;SDS011;38449;52.696;6.186;2022-11-20T08:10:51;19.20;;;11.13;;
52542;SDS011;38449;52.696;6.186;2022-11-20T08:13:17;18.23;;;10.38;;
52542;SDS011;38449;52.696;6.186;2022-11-20T08:16:01;19.25;;;10.55;;
52542;SDS011;38449;52.696;6.186;2022-11-20T08:18:27;17.13;;;10.80;;
52542;SDS011;38449;52.696;6.186;2022-11-20T08:20:52;19.15;;;11.60;;
52542;SDS011;38449;52.696;6.186;2022-11-20T08:23:18;18.58;;;12.00;;
52542;SDS011;38449;52.696;6.186;2022-11-20T08:25:43;20.10;;;11.68;;
52542;SDS011;38449;52.696;6.186;2022-11-20T08:28:14;21.55;;;11.90;;
52542;SDS011;38449;52.696;6.186;2022-11-20T08:30:40;18.63;;;11.55;;
52542;SDS011;38449;52.696;6.186;2022-11-20T08:33:06;19.35;;;11.88;;
52542;SDS011;38449;52.696;6.186;2022-11-20T08:35:34;22.83;;;13.05;;
52542;SDS011;38449;52.696;6.186;2022-11-20T08:38:05;21.13;;;13.35;;
52542;SDS011;38449;52.696;6.186;2022-11-20T08:40:31;19.25;;;12.43;;
52542;SDS011;38449;52.696;6.186;2022-11-20T08:43:00;19.38;;;11.63;;
52542;SDS011;38449;52.696;6.186;2022-11-20T08:45:25;23.15;;;11.80;;
52542;SDS011;38449;52.696;6.186;2022-11-20T08:47:51;20.05;;;12.05;;
52542;SDS011;38449;52.696;6.186;2022-11-20T08:50:17;19.48;;;11.63;;
52542;SDS011;38449;52.696;6.186;2022-11-20T08:52:43;19.88;;;12.50;;
52542;SDS011;38449;52.696;6.186;2022-11-20T08:55:09;19.85;;;11.50;;
52542;SDS011;38449;52.696;6.186;2022-11-20T08:57:35;20.58;;;11.70;;
52542;SDS011;38449;52.696;6.186;2022-11-20T09:00:03;19.02;;;11.32;;
52542;SDS011;38449;52.696;6.186;2022-11-20T09:02:29;20.02;;;12.07;;
52542;SDS011;38449;52.696;6.186;2022-11-20T09:04:55;21.05;;;12.07;;
52542;SDS011;38449;52.696;6.186;2022-11-20T09:07:21;19.98;;;12.85;;
52542;SDS011;38449;52.696;6.186;2022-11-20T09:09:47;19.30;;;12.57;;
52542;SDS011;38449;52.696;6.186;2022-11-20T09:12:12;20.77;;;12.57;;
52542;SDS011;38449;52.696;6.186;2022-11-20T09:14:38;18.17;;;11.38;;
52542;SDS011;38449;52.696;6.186;2022-11-20T09:17:04;19.02;;;11.30;;
52542;SDS011;38449;52.696;6.186;2022-11-20T09:19:32;16.88;;;10.32;;
52542;SDS011;38449;52.696;6.186;2022-11-20T09:21:58;18.95;;;11.93;;
52542;SDS011;38449;52.696;6.186;2022-11-20T09:24:25;17.40;;;11.13;;
52542;SDS011;38449;52.696;6.186;2022-11-20T09:26:51;18.52;;;11.25;;
52542;SDS011;38449;52.696;6.186;2022-11-20T09:29:16;18.75;;;11.57;;
52542;SDS011;38449;52.696;6.186;2022-11-20T09:31:42;18.80;;;11.90;;
52542;SDS011;38449;52.696;6.186;2022-11-20T09:34:07;19.27;;;10.75;;
52542;SDS011;38449;52.696;6.186;2022-11-20T09:36:33;16.23;;;10.85;;
52542;SDS011;38449;52.696;6.186;2022-11-20T09:38:58;17.48;;;11.50;;
52542;SDS011;38449;52.696;6.186;2022-11-20T09:44:06;17.17;;;11.02;;
52542;SDS011;38449;52.696;6.186;2022-11-20T09:46:50;15.05;;;9.65;;
52542;SDS011;38449;52.696;6.186;2022-11-20T09:49:36;20.48;;;12.55;;
52542;SDS011;38449;52.696;6.186;2022-11-20T09:52:35;16.58;;;10.10;;
52542;SDS011;38449;52.696;6.186;2022-11-20T09:55:02;17.23;;;10.23;;
52542;SDS011;38449;52.696;6.186;2022-11-20T09:57:38;16.17;;;10.80;;
52542;SDS011;38449;52.696;6.186;2022-11-20T10:00:09;16.05;;;11.35;;
52542;SDS011;38449;52.696;6.186;2022-11-20T10:02:58;16.75;;;11.63;;
52542;SDS011;38449;52.696;6.186;2022-11-20T10:05:45;17.38;;;11.20;;
52542;SDS011;38449;52.696;6.186;2022-11-20T10:08:15;16.52;;;11.15;;
52542;SDS011;38449;52.696;6.186;2022-11-20T10:11:05;18.08;;;11.43;;
52542;SDS011;38449;52.696;6.186;2022-11-20T10:30:37;15.52;;;10.93;;
52542;SDS011;38449;52.696;6.186;2022-11-20T10:33:13;14.75;;;9.95;;
52542;SDS011;38449;52.696;6.186;2022-11-20T10:36:06;15.63;;;10.52;;
52542;SDS011;38449;52.696;6.186;2022-11-20T10:38:34;14.70;;;10.10;;
52542;SDS011;38449;52.696;6.186;2022-11-20T10:41:04;15.13;;;9.38;;
52542;SDS011;38449;52.696;6.186;2022-11-20T10:44:35;12.05;;;8.27;;
52542;SDS011;38449;52.696;6.186;2022-11-20T10:46:43;13.80;;;8.75;;
52542;SDS011;38449;52.696;6.186;2022-11-20T10:49:29;13.82;;;9.05;;
52542;SDS011;38449;52.696;6.186;2022-11-20T10:55:01;13.90;;;9.65;;
52542;SDS011;38449;52.696;6.186;2022-11-20T11:00:47;13.85;;;9.13;;
52542;SDS011;38449;52.696;6.186;2022-11-20T11:03:28;12.57;;;8.85;;
52542;SDS011;38449;52.696;6.186;2022-11-20T11:08:39;14.13;;;8.93;;
52542;SDS011;38449;52.696;6.186;2022-11-20T11:11:20;11.18;;;7.85;;
52542;SDS011;38449;52.696;6.186;2022-11-20T11:13:48;13.32;;;9.35;;
52542;SDS011;38449;52.696;6.186;2022-11-20T11:16:24;13.35;;;8.43;;
52542;SDS011;38449;52.696;6.186;2022-11-20T11:19:02;15.75;;;10.07;;
52542;SDS011;38449;52.696;6.186;2022-11-20T11:21:29;13.25;;;9.27;;
52542;SDS011;38449;52.696;6.186;2022-11-20T11:23:59;12.55;;;9.27;;
52542;SDS011;38449;52.696;6.186;2022-11-20T11:26:26;13.30;;;9.05;;
52542;SDS011;38449;52.696;6.186;2022-11-20T11:28:56;14.57;;;8.93;;
52542;SDS011;38449;52.696;6.186;2022-11-20T11:31:25;15.93;;;10.23;;
52542;SDS011;38449;52.696;6.186;2022-11-20T11:33:51;15.55;;;10.50;;
52542;SDS011;38449;52.696;6.186;2022-11-20T11:36:18;15.90;;;10.32;;
52542;SDS011;38449;52.696;6.186;2022-11-20T11:38:48;19.48;;;11.15;;
52542;SDS011;38449;52.696;6.186;2022-11-20T11:41:20;15.38;;;10.93;;
52542;SDS011;38449;52.696;6.186;2022-11-20T11:44:00;17.00;;;11.05;;
52542;SDS011;38449;52.696;6.186;2022-11-20T11:46:58;16.83;;;10.00;;
52542;SDS011;38449;52.696;6.186;2022-11-20T11:49:25;15.20;;;10.55;;
52542;SDS011;38449;52.696;6.186;2022-11-20T11:54:41;14.85;;;9.63;;
52542;SDS011;38449;52.696;6.186;2022-11-20T12:00:12;14.98;;;9.60;;
52542;SDS011;38449;52.696;6.186;2022-11-20T12:07:45;14.20;;;9.93;;
52542;SDS011;38449;52.696;6.186;2022-11-20T12:13:26;15.55;;;9.90;;
52542;SDS011;38449;52.696;6.186;2022-11-20T12:15:54;15.68;;;10.85;;
52542;SDS011;38449;52.696;6.186;2022-11-20T12:18:20;17.65;;;11.27;;
52542;SDS011;38449;52.696;6.186;2022-11-20T12:20:54;16.38;;;11.00;;
52542;SDS011;38449;52.696;6.186;2022-11-20T12:24:34;18.35;;;11.85;;
52542;SDS011;38449;52.696;6.186;2022-11-20T12:34:58;15.60;;;10.27;;
52542;SDS011;38449;52.696;6.186;2022-11-20T12:43:21;16.60;;;12.13;;
52542;SDS011;38449;52.696;6.186;2022-11-20T12:46:18;19.35;;;14.23;;
52542;SDS011;38449;52.696;6.186;2022-11-20T12:52:01;14.50;;;10.27;;
52542;SDS011;38449;52.696;6.186;2022-11-20T12:59:56;14.82;;;9.95;;
52542;SDS011;38449;52.696;6.186;2022-11-20T13:02:38;16.08;;;10.10;;
52542;SDS011;38449;52.696;6.186;2022-11-20T13:08:28;17.50;;;10.52;;
52542;SDS011;38449;52.696;6.186;2022-11-20T13:16:49;34.65;;;21.30;;
52542;SDS011;38449;52.696;6.186;2022-11-20T13:19:22;23.65;;;15.68;;
52542;SDS011;38449;52.696;6.186;2022-11-20T13:21:49;21.55;;;13.52;;
52542;SDS011;38449;52.696;6.186;2022-11-20T13:26:44;15.30;;;10.32;;
52542;SDS011;38449;52.696;6.186;2022-11-20T13:29:19;16.27;;;10.75;;
52542;SDS011;38449;52.696;6.186;2022-11-20T13:34:12;18.40;;;11.10;;
52542;SDS011;38449;52.696;6.186;2022-11-20T13:36:52;14.75;;;10.63;;
52542;SDS011;38449;52.696;6.186;2022-11-20T13:39:26;16.90;;;11.05;;
52542;SDS011;38449;52.696;6.186;2022-11-20T13:41:53;15.43;;;11.23;;
52542;SDS011;38449;52.696;6.186;2022-11-20T13:47:03;17.38;;;11.65;;
52542;SDS011;38449;52.696;6.186;2022-11-20T13:49:33;16.95;;;11.43;;
52542;SDS011;38449;52.696;6.186;2022-11-20T13:54:55;17.60;;;12.50;;
52542;SDS011;38449;52.696;6.186;2022-11-20T14:00:47;18.20;;;11.10;;
52542;SDS011;38449;52.696;6.186;2022-11-20T14:03:22;17.48;;;11.52;;
52542;SDS011;38449;52.696;6.186;2022-11-20T14:05:50;18.23;;;12.52;;
52542;SDS011;38449;52.696;6.186;2022-11-20T14:08:26;18.38;;;11.93;;
52542;SDS011;38449;52.696;6.186;2022-11-20T14:11:02;16.77;;;11.73;;
52542;SDS011;38449;52.696;6.186;2022-11-20T14:13:51;17.30;;;11.23;;
52542;SDS011;38449;52.696;6.186;2022-11-20T14:16:19;16.55;;;11.85;;
52542;SDS011;38449;52.696;6.186;2022-11-20T14:18:45;16.77;;;12.45;;
52542;SDS011;38449;52.696;6.186;2022-11-20T14:21:11;15.20;;;11.10;;
52542;SDS011;38449;52.696;6.186;2022-11-20T14:23:46;17.73;;;12.80;;
52542;SDS011;38449;52.696;6.186;2022-11-20T14:26:14;17.63;;;11.68;;
52542;SDS011;38449;52.696;6.186;2022-11-20T14:28:42;18.10;;;12.13;;
52542;SDS011;38449;52.696;6.186;2022-11-20T14:31:10;18.38;;;12.73;;
52542;SDS011;38449;52.696;6.186;2022-11-20T14:33:46;16.65;;;12.25;;
52542;SDS011;38449;52.696;6.186;2022-11-20T14:36:16;15.57;;;11.07;;
52542;SDS011;38449;52.696;6.186;2022-11-20T14:38:43;21.20;;;12.73;;
52542;SDS011;38449;52.696;6.186;2022-11-20T14:41:14;17.52;;;12.45;;
52542;SDS011;38449;52.696;6.186;2022-11-20T14:43:45;21.10;;;15.02;;
52542;SDS011;38449;52.696;6.186;2022-11-20T14:46:12;21.08;;;14.25;;
52542;SDS011;38449;52.696;6.186;2022-11-20T14:51:22;17.80;;;12.65;;
52542;SDS011;38449;52.696;6.186;2022-11-20T14:54:21;17.20;;;12.20;;
52542;SDS011;38449;52.696;6.186;2022-11-20T14:56:55;20.52;;;13.80;;
52542;SDS011;38449;52.696;6.186;2022-11-20T14:59:24;21.35;;;14.85;;
52542;SDS011;38449;52.696;6.186;2022-11-20T15:01:59;20.80;;;13.77;;
52542;SDS011;38449;52.696;6.186;2022-11-20T15:04:29;19.60;;;13.05;;
52542;SDS011;38449;52.696;6.186;2022-11-20T15:06:56;16.77;;;11.88;;
52542;SDS011;38449;52.696;6.186;2022-11-20T15:09:23;16.50;;;11.10;;
52542;SDS011;38449;52.696;6.186;2022-11-20T15:11:57;16.30;;;11.15;;
52542;SDS011;38449;52.696;6.186;2022-11-20T15:14:25;17.23;;;12.55;;
52542;SDS011;38449;52.696;6.186;2022-11-20T15:16:52;17.70;;;12.32;;
52542;SDS011;38449;52.696;6.186;2022-11-20T15:19:23;17.08;;;11.77;;
52542;SDS011;38449;52.696;6.186;2022-11-20T15:21:51;18.35;;;12.43;;
52542;SDS011;38449;52.696;6.186;2022-11-20T15:24:16;18.00;;;12.10;;
52542;SDS011;38449;52.696;6.186;2022-11-20T15:26:42;19.27;;;13.15;;
52542;SDS011;38449;52.696;6.186;2022-11-20T15:29:12;17.33;;;12.50;;
52542;SDS011;38449;52.696;6.186;2022-11-20T15:31:39;18.98;;;13.02;;
52542;SDS011;38449;52.696;6.186;2022-11-20T15:34:10;18.15;;;12.10;;
52542;SDS011;38449;52.696;6.186;2022-11-20T15:36:37;18.52;;;12.85;;
52542;SDS011;38449;52.696;6.186;2022-11-20T15:39:03;18.90;;;12.18;;
52542;SDS011;38449;52.696;6.186;2022-11-20T15:41:29;17.33;;;11.95;;
52542;SDS011;38449;52.696;6.186;2022-11-20T15:43:54;19.55;;;13.30;;
52542;SDS011;38449;52.696;6.186;2022-11-20T15:46:24;19.05;;;13.20;;
52542;SDS011;38449;52.696;6.186;2022-11-20T15:48:54;17.40;;;13.07;;
52542;SDS011;38449;52.696;6.186;2022-11-20T15:51:31;26.80;;;16.60;;
52542;SDS011;38449;52.696;6.186;2022-11-20T15:53:59;20.38;;;15.25;;
52542;SDS011;38449;52.696;6.186;2022-11-20T15:56:26;21.30;;;13.88;;
52542;SDS011;38449;52.696;6.186;2022-11-20T15:58:51;20.35;;;14.07;;
52542;SDS011;38449;52.696;6.186;2022-11-20T16:01:18;19.40;;;14.45;;
52542;SDS011;38449;52.696;6.186;2022-11-20T16:03:46;18.73;;;12.95;;
52542;SDS011;38449;52.696;6.186;2022-11-20T16:06:11;20.13;;;12.90;;
52542;SDS011;38449;52.696;6.186;2022-11-20T16:08:37;18.27;;;13.35;;
52542;SDS011;38449;52.696;6.186;2022-11-20T16:11:03;17.83;;;13.27;;